Time,TemperatureF,DewpointF,PressureIn,WindDirection,WindDirectionDegrees,WindSpeedMPH,WindSpeedGustMPH,Humidity,HourlyPrecipIn,Conditions,Clouds,dailyrainin,SolarRadiationWatts/m^2,SoftwareType,DateUTC
2013-08-18 00:11:00,69.0,59.0,-100.00,WNW,288,5.0,10.0,70,0.00,,,0.00,1.000000,,2013-08-18 06:11:00,
2013-08-18 00:21:00,69.0,59.0,-100.00,WNW,288,5.0,10.0,70,0.00,,,0.00,1.000000,,2013-08-18 06:21:00,
2013-08-18 00:32:00,69.0,59.0,-100.00,WNW,288,5.0,10.0,70,0.00,,,0.00,1.000000,,2013-08-18 06:32:00,
2013-08-18 01:11:00,68.0,57.0,-100.00,WNW,291,6.0,9.0,69,0.00,,,0.00,1.000000,,2013-08-18 07:11:00,
2013-08-18 01:22:00,68.0,57.0,-100.00,WNW,291,6.0,9.0,69,0.00,,,0.00,1.000000,,2013-08-18 07:22:00,
2013-08-18 01:32:00,68.0,57.0,-100.00,WNW,291,6.0,9.0,69,0.00,,,0.00,1.000000,,2013-08-18 07:32:00,
2013-08-18 02:12:00,68.0,57.0,-100.00,West,281,5.0,9.0,69,0.00,,,0.00,1.000000,,2013-08-18 08:12:00,
2013-08-18 02:21:00,68.0,57.0,-100.00,West,281,5.0,9.0,69,0.00,,,0.00,1.000000,,2013-08-18 08:21:00,
2013-08-18 02:32:00,68.0,57.0,-100.00,West,281,5.0,9.0,69,0.00,,,0.00,1.000000,,2013-08-18 08:32:00,
2013-08-18 03:11:00,66.0,57.0,-100.00,WNW,288,5.0,11.0,73,0.00,,,0.00,1.000000,,2013-08-18 09:11:00,
2013-08-18 03:21:00,66.0,57.0,-100.00,WNW,288,5.0,11.0,73,0.00,,,0.00,1.000000,,2013-08-18 09:21:00,
2013-08-18 03:33:00,66.0,57.0,-100.00,WNW,288,5.0,11.0,73,0.00,,,0.00,1.000000,,2013-08-18 09:33:00,
2013-08-18 04:13:00,65.0,56.0,-100.00,WNW,296,5.0,9.0,72,0.00,,,0.00,1.000000,,2013-08-18 10:13:00,
2013-08-18 04:23:00,65.0,56.0,-100.00,WNW,296,5.0,9.0,72,0.00,,,0.00,1.000000,,2013-08-18 10:23:00,
2013-08-18 04:32:00,65.0,56.0,-100.00,WNW,296,5.0,9.0,72,0.00,,,0.00,1.000000,,2013-08-18 10:32:00,
2013-08-18 05:11:00,63.0,55.0,-100.00,WNW,296,7.0,10.0,75,0.00,,,0.00,1.000000,,2013-08-18 11:11:00,
2013-08-18 05:22:00,63.0,55.0,-100.00,WNW,296,7.0,10.0,75,0.00,,,0.00,1.000000,,2013-08-18 11:22:00,
2013-08-18 05:32:00,63.0,55.0,-100.00,WNW,296,7.0,10.0,75,0.00,,,0.00,1.000000,,2013-08-18 11:32:00,
2013-08-18 06:11:00,62.0,53.0,-100.00,West,265,6.0,12.0,72,0.00,,,0.00,1.000000,,2013-08-18 12:11:00,
2013-08-18 06:21:00,62.0,53.0,-100.00,West,265,6.0,12.0,72,0.00,,,0.00,1.000000,,2013-08-18 12:21:00,
2013-08-18 06:31:00,62.0,53.0,-100.00,West,265,6.0,12.0,72,0.00,,,0.00,1.000000,,2013-08-18 12:31:00,
2013-08-18 07:11:00,60.0,53.0,-100.00,WNW,288,5.0,9.0,79,0.00,,,0.00,9.000000,,2013-08-18 13:11:00,
2013-08-18 07:21:00,60.0,53.0,-100.00,WNW,288,5.0,9.0,79,0.00,,,0.00,9.000000,,2013-08-18 13:21:00,
2013-08-18 07:32:00,60.0,53.0,-100.00,WNW,288,5.0,9.0,79,0.00,,,0.00,9.000000,,2013-08-18 13:32:00,
2013-08-18 08:11:00,62.0,54.0,-100.00,West,262,3.0,10.0,74,0.00,,,0.00,101.000000,,2013-08-18 14:11:00,
2013-08-18 08:21:00,62.0,54.0,-100.00,West,262,3.0,10.0,74,0.00,,,0.00,101.000000,,2013-08-18 14:21:00,
2013-08-18 08:32:00,62.0,54.0,-100.00,West,262,3.0,10.0,74,0.00,,,0.00,101.000000,,2013-08-18 14:32:00,
2013-08-18 09:11:00,68.0,54.0,-100.00,WNW,292,6.0,9.0,62,0.00,,,-99.99,278.000000,,2013-08-18 15:11:00,
2013-08-18 09:22:00,68.0,54.0,-100.00,WNW,292,6.0,9.0,62,0.00,,,-99.99,278.000000,,2013-08-18 15:22:00,
2013-08-18 09:33:00,68.0,54.0,-100.00,WNW,292,6.0,9.0,62,0.00,,,-99.99,278.000000,,2013-08-18 15:33:00,
2013-08-18 10:13:00,71.0,57.0,-100.00,WNW,291,4.0,9.0,61,0.00,,,0.00,274.000000,,2013-08-18 16:13:00,
2013-08-18 10:23:00,71.0,57.0,-100.00,WNW,291,4.0,9.0,61,0.00,,,0.00,274.000000,,2013-08-18 16:23:00,
2013-08-18 10:33:00,71.0,57.0,-100.00,WNW,291,4.0,9.0,61,0.00,,,0.00,274.000000,,2013-08-18 16:33:00,
2013-08-18 11:13:00,76.0,61.0,-100.00,North,6,7.0,13.0,59,0.00,,,0.00,238.000000,,2013-08-18 17:13:00,
2013-08-18 11:23:00,76.0,61.0,-100.00,North,6,7.0,13.0,59,0.00,,,0.00,238.000000,,2013-08-18 17:23:00,
2013-08-18 11:33:00,76.0,61.0,-100.00,North,6,7.0,13.0,59,0.00,,,0.00,238.000000,,2013-08-18 17:33:00,
2013-08-18 12:12:00,77.0,59.0,-100.00,North,5,5.0,16.0,53,0.00,,,0.00,423.000000,,2013-08-18 18:12:00,
2013-08-18 12:21:00,77.0,59.0,-100.00,North,5,5.0,16.0,53,0.00,,,0.00,423.000000,,2013-08-18 18:21:00,
2013-08-18 12:32:00,77.0,59.0,-100.00,North,5,5.0,16.0,53,0.00,,,0.00,423.000000,,2013-08-18 18:32:00,
2013-08-18 13:11:00,71.0,60.0,-100.00,NE,37,5.0,15.0,68,0.00,,,0.00,89.000000,,2013-08-18 19:11:00,
2013-08-18 13:22:00,71.0,60.0,-100.00,NE,37,5.0,15.0,68,0.00,,,0.00,89.000000,,2013-08-18 19:22:00,
2013-08-18 13:31:00,71.0,60.0,-100.00,NE,37,5.0,15.0,68,0.00,,,0.00,89.000000,,2013-08-18 19:31:00,
2013-08-18 14:12:00,73.0,59.0,-100.00,South,187,6.0,10.0,62,0.00,,,0.00,198.000000,,2013-08-18 20:12:00,
2013-08-18 14:22:00,73.0,59.0,-100.00,South,187,6.0,10.0,62,0.00,,,0.00,198.000000,,2013-08-18 20:22:00,
2013-08-18 14:32:00,73.0,59.0,-100.00,South,187,6.0,10.0,62,0.00,,,0.00,198.000000,,2013-08-18 20:32:00,
2013-08-18 15:11:00,82.0,59.0,-100.00,SSE,160,6.0,12.0,46,0.00,,,0.00,682.000000,,2013-08-18 21:11:00,
2013-08-18 15:22:00,82.0,59.0,-100.00,SSE,160,6.0,12.0,46,0.00,,,0.00,682.000000,,2013-08-18 21:22:00,
2013-08-18 15:32:00,82.0,59.0,-100.00,SSE,160,6.0,12.0,46,0.00,,,0.00,682.000000,,2013-08-18 21:32:00,
2013-08-18 16:13:00,80.0,60.0,-100.00,SSE,157,3.0,12.0,50,0.00,,,0.00,578.000000,,2013-08-18 22:13:00,
2013-08-18 16:23:00,80.0,60.0,-100.00,SSE,157,3.0,12.0,50,0.00,,,0.00,578.000000,,2013-08-18 22:23:00,
2013-08-18 16:34:00,80.0,60.0,-100.00,SSE,157,3.0,12.0,50,0.00,,,0.00,578.000000,,2013-08-18 22:34:00,
2013-08-18 17:11:00,71.0,62.0,-100.00,South,179,5.0,9.0,73,0.01,,,0.01,61.000000,,2013-08-18 23:11:00,
2013-08-18 17:22:00,71.0,62.0,-100.00,South,179,5.0,9.0,73,0.01,,,0.01,61.000000,,2013-08-18 23:22:00,
2013-08-18 17:33:00,71.0,62.0,-100.00,South,179,5.0,9.0,73,0.01,,,0.01,61.000000,,2013-08-18 23:33:00,
2013-08-18 18:11:00,80.0,57.0,-100.00,South,181,3.0,10.0,45,0.00,,,0.01,423.000000,,2013-08-19 00:11:00,
2013-08-18 18:21:00,80.0,57.0,-100.00,South,181,3.0,10.0,45,0.00,,,0.01,423.000000,,2013-08-19 00:21:00,
2013-08-18 18:32:00,80.0,57.0,-100.00,South,181,3.0,10.0,45,0.00,,,0.01,423.000000,,2013-08-19 00:32:00,
2013-08-18 19:11:00,80.0,55.0,-100.00,WSW,257,2.0,9.0,43,0.00,,,0.01,190.000000,,2013-08-19 01:11:00,
2013-08-18 19:22:00,80.0,55.0,-100.00,WSW,257,2.0,9.0,43,0.00,,,0.01,190.000000,,2013-08-19 01:22:00,
2013-08-18 19:32:00,80.0,55.0,-100.00,WSW,257,2.0,9.0,43,0.00,,,0.01,190.000000,,2013-08-19 01:32:00,
2013-08-18 20:11:00,75.0,54.0,-100.00,WNW,294,3.0,6.0,48,0.00,,,0.01,91.000000,,2013-08-19 02:11:00,
2013-08-18 20:21:00,75.0,54.0,-100.00,WNW,294,3.0,6.0,48,0.00,,,0.01,91.000000,,2013-08-19 02:21:00,
2013-08-18 20:32:00,75.0,54.0,-100.00,WNW,294,3.0,6.0,48,0.00,,,0.01,91.000000,,2013-08-19 02:32:00,
2013-08-18 21:11:00,69.0,58.0,-100.00,West,278,6.0,9.0,68,0.00,,,0.01,4.000000,,2013-08-19 03:11:00,
2013-08-18 21:21:00,69.0,58.0,-100.00,West,278,6.0,9.0,68,0.00,,,0.01,4.000000,,2013-08-19 03:21:00,
2013-08-18 21:33:00,69.0,58.0,-100.00,West,278,6.0,9.0,68,0.00,,,0.01,4.000000,,2013-08-19 03:33:00,
2013-08-18 22:12:00,67.0,57.0,-100.00,West,281,5.0,11.0,70,0.00,,,0.01,1.000000,,2013-08-19 04:12:00,
2013-08-18 22:23:00,67.0,57.0,-100.00,West,281,5.0,11.0,70,0.00,,,0.01,1.000000,,2013-08-19 04:23:00,
2013-08-18 22:33:00,67.0,57.0,-100.00,West,281,5.0,11.0,70,0.00,,,0.01,1.000000,,2013-08-19 04:33:00,
2013-08-18 23:22:00,66.0,56.0,-100.00,WNW,294,6.0,10.0,71,0.00,,,0.01,1.000000,,2013-08-19 05:22:00,
2013-08-18 23:33:00,66.0,56.0,-100.00,WNW,294,6.0,10.0,71,0.00,,,0.01,1.000000,,2013-08-19 05:33:00,